createdAt,value
2018-11-10T00:00:16.129Z,0
2018-11-10T00:01:16.147Z,0
2018-11-10T00:02:16.154Z,0
2018-11-10T00:03:16.105Z,0
2018-11-10T00:04:16.232Z,0
2018-11-10T00:05:16.192Z,0
2018-11-10T00:06:16.216Z,0
2018-11-10T00:07:16.158Z,0
2018-11-10T00:08:16.272Z,1.8
2018-11-10T00:09:16.148Z,1.8
2018-11-10T00:10:16.129Z,3.9
2018-11-10T00:11:16.125Z,6.6
2018-11-10T00:12:16.143Z,9.5
2018-11-10T00:13:16.206Z,12.4
2018-11-10T00:14:16.111Z,12.4
2018-11-10T00:15:16.160Z,9.5
2018-11-10T00:16:16.130Z,12.4
2018-11-10T00:17:16.183Z,9.5
2018-11-10T00:18:16.149Z,3.9
2018-11-10T00:19:16.318Z,3.9
2018-11-10T00:20:16.118Z,3.9
2018-11-10T00:21:16.124Z,0
2018-11-10T00:22:16.170Z,0
2018-11-10T00:23:16.125Z,0
2018-11-10T00:24:16.120Z,0
2018-11-10T00:25:16.082Z,0
2018-11-10T00:26:16.204Z,0
2018-11-10T00:27:16.102Z,0
2018-11-10T00:28:16.100Z,0
2018-11-10T00:29:16.137Z,0
2018-11-10T00:30:16.129Z,0
2018-11-10T00:31:16.171Z,0
2018-11-10T00:32:16.101Z,0
2018-11-10T00:33:16.140Z,6.6
2018-11-10T00:34:16.111Z,3.9
2018-11-10T00:35:16.121Z,0
2018-11-10T00:36:16.178Z,0
2018-11-10T00:37:16.120Z,0
2018-11-10T00:38:16.132Z,0
2018-11-10T00:39:16.112Z,0
2018-11-10T00:40:16.150Z,0
2018-11-10T00:41:16.084Z,0
2018-11-10T00:42:16.088Z,0
2018-11-10T00:43:16.172Z,0
2018-11-10T00:44:16.093Z,0
2018-11-10T00:45:16.123Z,0
2018-11-10T00:46:16.535Z,6.6
2018-11-10T00:47:16.132Z,6.6
2018-11-10T00:48:16.113Z,6.6
2018-11-10T00:49:16.095Z,3.9
2018-11-10T00:50:16.110Z,0
2018-11-10T00:51:16.135Z,0
2018-11-10T00:52:16.148Z,1.8
2018-11-10T00:53:16.114Z,0
2018-11-10T00:54:16.118Z,3.9
2018-11-10T00:55:16.098Z,1.8
2018-11-10T00:56:16.115Z,1.8
2018-11-10T00:57:16.146Z,0
2018-11-10T00:58:16.108Z,1.8
2018-11-10T00:59:16.099Z,1.8
2018-11-10T01:00:16.098Z,1.8
2018-11-10T01:01:16.072Z,0
2018-11-10T01:02:16.161Z,0
2018-11-10T01:03:16.038Z,0
2018-11-10T01:04:16.084Z,0
2018-11-10T01:05:16.090Z,0
2018-11-10T01:06:16.138Z,0
2018-11-10T01:07:16.138Z,0
2018-11-10T01:08:16.072Z,0
2018-11-10T01:09:16.112Z,0
2018-11-10T01:10:16.087Z,0
2018-11-10T01:11:16.079Z,0
2018-11-10T01:12:16.054Z,0
2018-11-10T01:13:16.081Z,0
2018-11-10T01:14:16.039Z,0
2018-11-10T01:15:16.051Z,0
2018-11-10T01:16:16.117Z,0
2018-11-10T01:17:16.145Z,0
2018-11-10T01:18:16.075Z,1.8
2018-11-10T01:19:16.083Z,0
2018-11-10T01:20:16.124Z,0
2018-11-10T01:21:16.149Z,0
2018-11-10T01:22:16.056Z,0
2018-11-10T01:23:16.084Z,0
2018-11-10T01:24:16.075Z,0
2018-11-10T01:25:16.112Z,0
2018-11-10T01:26:16.070Z,0
2018-11-10T01:27:16.073Z,0
2018-11-10T01:28:16.094Z,0
2018-11-10T01:29:16.080Z,0
2018-11-10T01:30:16.061Z,0
2018-11-10T01:31:16.100Z,0
2018-11-10T01:32:16.099Z,0
2018-11-10T01:33:16.076Z,0
2018-11-10T01:34:16.085Z,0
2018-11-10T01:35:16.102Z,0
2018-11-10T01:36:16.023Z,0
2018-11-10T01:37:16.123Z,0
2018-11-10T01:38:16.113Z,0
2018-11-10T01:39:16.153Z,0
2018-11-10T01:40:16.061Z,0
2018-11-10T01:41:16.021Z,0
2018-11-10T01:42:16.055Z,0
2018-11-10T01:43:16.083Z,0
2018-11-10T01:44:16.092Z,0
2018-11-10T01:45:16.075Z,1.8
2018-11-10T01:46:17.903Z,0
2018-11-10T01:47:16.059Z,0
2018-11-10T01:48:16.042Z,0
2018-11-10T01:49:16.040Z,0
2018-11-10T01:50:16.138Z,0
2018-11-10T01:51:16.054Z,0
2018-11-10T01:52:16.069Z,0
2018-11-10T01:53:16.059Z,0
2018-11-10T01:54:16.123Z,0
2018-11-10T01:55:16.051Z,0
2018-11-10T01:56:16.060Z,1.8
2018-11-10T01:57:16.064Z,0
2018-11-10T01:58:16.066Z,3.9
2018-11-10T01:59:16.134Z,1.8
2018-11-10T02:00:16.062Z,3.9
2018-11-10T02:01:16.049Z,1.8
2018-11-10T02:02:16.074Z,3.9
2018-11-10T02:03:16.066Z,3.9
2018-11-10T02:04:16.063Z,1.8
2018-11-10T02:05:16.069Z,3.9
2018-11-10T02:06:16.039Z,3.9
2018-11-10T02:07:16.054Z,0
2018-11-10T02:08:16.087Z,3.9
2018-11-10T02:09:17.012Z,1.8
2018-11-10T02:10:16.072Z,3.9
2018-11-10T02:11:16.082Z,3.9
2018-11-10T02:12:16.130Z,1.8
2018-11-10T02:13:16.074Z,0
2018-11-10T02:14:16.011Z,0
2018-11-10T02:15:16.052Z,0
2018-11-10T02:16:16.115Z,3.9
2018-11-10T02:17:16.024Z,6.6
2018-11-10T02:18:16.032Z,9.5
2018-11-10T02:19:16.023Z,9.5
2018-11-10T02:20:16.095Z,6.6
2018-11-10T02:21:16.034Z,6.6
2018-11-10T02:22:16.042Z,6.6
2018-11-10T02:23:16.035Z,6.6
2018-11-10T02:24:16.040Z,3.9
2018-11-10T02:25:16.055Z,1.8
2018-11-10T02:26:16.098Z,0
2018-11-10T02:27:16.031Z,0
2018-11-10T02:28:16.061Z,0
2018-11-10T02:29:16.071Z,0
2018-11-10T02:30:16.093Z,0
2018-11-10T02:31:16.080Z,0
2018-11-10T02:32:16.063Z,0
2018-11-10T02:33:16.600Z,0
2018-11-10T02:34:16.068Z,0
2018-11-10T02:35:16.096Z,0
2018-11-10T02:36:16.024Z,0
2018-11-10T02:37:16.038Z,0
2018-11-10T02:38:16.072Z,0
2018-11-10T02:39:16.090Z,0
2018-11-10T02:40:16.096Z,0
2018-11-10T02:41:16.017Z,0
2018-11-10T02:42:16.037Z,3.9
2018-11-10T02:43:16.032Z,6.6
2018-11-10T02:44:16.032Z,6.6
2018-11-10T02:45:16.121Z,9.5
2018-11-10T02:46:16.050Z,6.6
2018-11-10T02:47:16.097Z,6.6
2018-11-10T02:48:16.128Z,1.8
2018-11-10T02:49:16.026Z,1.8
2018-11-10T02:50:16.100Z,0
2018-11-10T02:51:16.037Z,0
2018-11-10T02:52:16.031Z,0
2018-11-10T02:53:16.033Z,0
2018-11-10T02:54:16.039Z,0
2018-11-10T02:55:16.027Z,0
2018-11-10T02:56:16.070Z,0
2018-11-10T02:57:16.014Z,0
2018-11-10T02:58:16.045Z,0
2018-11-10T02:59:16.015Z,0
2018-11-10T03:00:16.042Z,0
2018-11-10T03:01:16.019Z,0
2018-11-10T03:02:16.049Z,0
2018-11-10T03:03:16.052Z,0
2018-11-10T03:04:16.032Z,0
2018-11-10T03:05:16.015Z,0
2018-11-10T03:06:16.028Z,0
2018-11-10T03:07:16.009Z,0
2018-11-10T03:08:16.041Z,1.8
2018-11-10T03:09:16.005Z,6.6
2018-11-10T03:10:16.032Z,6.6
2018-11-10T03:11:15.986Z,9.5
2018-11-10T03:12:16.008Z,9.5
2018-11-10T03:13:16.050Z,9.5
2018-11-10T03:14:15.952Z,1.8
2018-11-10T03:15:16.022Z,3.9
2018-11-10T03:16:16.547Z,1.8
2018-11-10T03:17:16.008Z,0
2018-11-10T03:18:16.043Z,0
2018-11-10T03:19:16.075Z,0
2018-11-10T03:20:16.005Z,0
2018-11-10T03:21:16.061Z,0
2018-11-10T03:22:16.027Z,0
2018-11-10T03:23:16.032Z,0
2018-11-10T03:24:16.094Z,0
2018-11-10T03:25:15.997Z,0
2018-11-10T03:26:16.096Z,0
2018-11-10T03:27:16.041Z,0
2018-11-10T03:28:16.016Z,0
2018-11-10T03:29:16.103Z,0
2018-11-10T03:30:15.970Z,0
2018-11-10T03:31:16.085Z,0
2018-11-10T03:32:16.005Z,0
2018-11-10T03:33:16.082Z,0
2018-11-10T03:34:15.999Z,3.9
2018-11-10T03:35:19.947Z,6.6
2018-11-10T03:36:15.989Z,9.5
2018-11-10T03:37:16.050Z,12.4
2018-11-10T03:38:16.019Z,9.5
2018-11-10T03:39:16.007Z,6.6
2018-11-10T03:40:16.047Z,6.6
2018-11-10T03:41:16.000Z,1.8
2018-11-10T03:42:16.075Z,1.8
2018-11-10T03:43:15.996Z,0
2018-11-10T03:44:16.080Z,0
2018-11-10T03:45:15.961Z,0
2018-11-10T03:46:15.945Z,0
2018-11-10T03:47:16.013Z,0
2018-11-10T03:48:16.018Z,0
2018-11-10T03:49:15.932Z,0
2018-11-10T03:50:16.001Z,0
2018-11-10T03:51:16.010Z,0
2018-11-10T03:52:15.996Z,0
2018-11-10T03:53:16.034Z,0
2018-11-10T03:54:15.971Z,0
2018-11-10T03:55:15.947Z,0
2018-11-10T03:56:15.991Z,0
2018-11-10T03:57:16.011Z,6.6
2018-11-10T03:58:15.974Z,9.5
2018-11-10T03:59:16.655Z,9.5
2018-11-10T04:00:16.025Z,12.4
2018-11-10T04:01:15.963Z,6.6
2018-11-10T04:02:16.023Z,3.9
2018-11-10T04:03:15.941Z,3.9
2018-11-10T04:04:15.911Z,1.8
2018-11-10T04:05:15.972Z,0
2018-11-10T04:06:15.972Z,0
2018-11-10T04:07:16.004Z,0
2018-11-10T04:08:16.062Z,0
2018-11-10T04:09:15.975Z,0
2018-11-10T04:10:15.952Z,0
2018-11-10T04:11:15.970Z,0
2018-11-10T04:12:16.026Z,0
2018-11-10T04:13:15.955Z,0
2018-11-10T04:14:15.968Z,1.8
2018-11-10T04:15:16.011Z,3.9
2018-11-10T04:16:15.932Z,3.9
2018-11-10T04:17:16.324Z,0
2018-11-10T04:18:15.944Z,0
2018-11-10T04:19:16.193Z,0
2018-11-10T04:20:15.961Z,0
2018-11-10T04:21:15.942Z,0
2018-11-10T04:22:15.945Z,0
2018-11-10T04:23:16.012Z,0
2018-11-10T04:24:16.033Z,0
2018-11-10T04:25:15.933Z,0
2018-11-10T04:26:15.928Z,0
2018-11-10T04:27:15.948Z,0
2018-11-10T04:28:15.992Z,0
2018-11-10T04:29:15.944Z,0
2018-11-10T04:30:15.928Z,0
2018-11-10T04:31:16.017Z,0
2018-11-10T04:32:15.943Z,0
2018-11-10T04:33:15.974Z,0
2018-11-10T04:34:15.960Z,0
2018-11-10T04:35:15.970Z,0
2018-11-10T04:36:15.924Z,0
2018-11-10T04:37:15.991Z,0
2018-11-10T04:38:15.955Z,0
2018-11-10T04:39:15.977Z,0
2018-11-10T04:40:15.927Z,0
2018-11-10T04:41:15.993Z,0
2018-11-10T04:42:15.961Z,0
2018-11-10T04:43:15.955Z,0
2018-11-10T04:44:15.942Z,0
2018-11-10T04:45:16.047Z,0
2018-11-10T04:46:15.910Z,0
2018-11-10T04:47:15.975Z,0
2018-11-10T04:48:16.021Z,0
2018-11-10T04:49:15.938Z,0
2018-11-10T04:50:15.992Z,0
2018-11-10T04:51:15.962Z,0
2018-11-10T04:52:15.954Z,0
2018-11-10T04:53:15.985Z,0
2018-11-10T04:54:15.907Z,0
2018-11-10T04:55:15.933Z,0
2018-11-10T04:56:15.973Z,0
2018-11-10T04:57:15.929Z,6.6
2018-11-10T04:58:15.935Z,9.5
2018-11-10T04:59:15.926Z,12.4
2018-11-10T05:00:15.949Z,15.4
2018-11-10T05:01:16.021Z,15.4
2018-11-10T05:02:15.913Z,12.4
2018-11-10T05:03:15.999Z,9.5
2018-11-10T05:04:15.969Z,1.8
2018-11-10T05:05:15.946Z,0
2018-11-10T05:06:15.943Z,0
2018-11-10T05:07:15.938Z,1.8
2018-11-10T05:08:15.973Z,0
2018-11-10T05:09:15.905Z,3.9
2018-11-10T05:10:15.899Z,9.5
2018-11-10T05:11:15.955Z,9.5
2018-11-10T05:12:15.938Z,6.6
2018-11-10T05:13:15.986Z,1.8
2018-11-10T05:14:15.934Z,3.9
2018-11-10T05:15:16.009Z,1.8
2018-11-10T05:16:15.931Z,0
2018-11-10T05:17:15.977Z,0
2018-11-10T05:18:15.912Z,0
2018-11-10T05:19:15.954Z,0
2018-11-10T05:20:15.949Z,0
2018-11-10T05:21:15.929Z,0
2018-11-10T05:22:15.978Z,0
2018-11-10T05:23:15.926Z,6.6
2018-11-10T05:24:15.936Z,6.6
2018-11-10T05:25:15.974Z,3.9
2018-11-10T05:26:16.000Z,1.8
2018-11-10T05:27:15.916Z,0
2018-11-10T05:28:15.958Z,0
2018-11-10T05:29:15.933Z,0
2018-11-10T05:30:15.966Z,0
2018-11-10T05:31:16.169Z,0
2018-11-10T05:32:16.026Z,0
2018-11-10T05:33:15.921Z,3.9
2018-11-10T05:34:15.921Z,6.6
2018-11-10T05:35:17.417Z,6.6
2018-11-10T05:36:15.960Z,6.6
2018-11-10T05:37:15.914Z,3.9
2018-11-10T05:38:15.940Z,0
2018-11-10T05:39:15.903Z,0
2018-11-10T05:40:15.950Z,0
2018-11-10T05:41:15.980Z,0
2018-11-10T05:42:15.899Z,0
2018-11-10T05:43:15.962Z,0
2018-11-10T05:44:15.931Z,0
2018-11-10T05:45:15.967Z,0
2018-11-10T05:46:15.947Z,0
2018-11-10T05:47:15.909Z,0
2018-11-10T05:48:15.950Z,0
2018-11-10T05:49:15.884Z,0
2018-11-10T05:50:15.911Z,0
2018-11-10T05:51:15.899Z,0
2018-11-10T05:52:15.980Z,0
2018-11-10T05:53:15.915Z,0
2018-11-10T05:54:15.928Z,0
2018-11-10T05:55:15.890Z,0
2018-11-10T05:56:15.944Z,0
2018-11-10T05:57:16.053Z,0
2018-11-10T05:58:15.973Z,0
2018-11-10T05:59:15.949Z,0
2018-11-10T06:00:15.924Z,0
2018-11-10T06:01:15.974Z,0
2018-11-10T06:02:15.895Z,0
2018-11-10T06:03:16.507Z,0
2018-11-10T06:04:15.903Z,0
2018-11-10T06:05:15.969Z,0
2018-11-10T06:06:15.923Z,0
2018-11-10T06:07:15.909Z,0
2018-11-10T06:08:15.882Z,0
2018-11-10T06:09:15.992Z,0
2018-11-10T06:10:16.093Z,0
2018-11-10T06:11:15.890Z,3.9
2018-11-10T06:12:15.892Z,6.6
2018-11-10T06:13:15.972Z,3.9
2018-11-10T06:14:15.922Z,6.6
2018-11-10T06:15:15.925Z,6.6
2018-11-10T06:16:16.086Z,6.6
2018-11-10T06:17:15.934Z,9.5
2018-11-10T06:18:15.933Z,6.6
2018-11-10T06:19:15.904Z,12.4
2018-11-10T06:20:15.908Z,12.4
2018-11-10T06:21:15.971Z,12.4
2018-11-10T06:22:15.871Z,15.4
2018-11-10T06:23:15.894Z,12.4
2018-11-10T06:24:18.250Z,18.3
2018-11-10T06:25:15.916Z,21.3
2018-11-10T06:26:16.065Z,18.3
2018-11-10T06:27:15.922Z,24.3
2018-11-10T06:28:15.894Z,24.3
2018-11-10T06:29:15.911Z,24.3
2018-11-10T06:30:15.889Z,21.3
2018-11-10T06:31:15.939Z,27.3
2018-11-10T06:32:15.932Z,24.3
2018-11-10T06:33:15.895Z,15.4
2018-11-10T06:34:15.864Z,12.4
2018-11-10T06:35:15.910Z,15.4
2018-11-10T06:36:15.905Z,21.3
2018-11-10T06:37:15.877Z,24.3
2018-11-10T06:38:15.903Z,21.3
2018-11-10T06:39:15.871Z,18.3
2018-11-10T06:40:16.046Z,18.3
2018-11-10T06:41:15.946Z,24.3
2018-11-10T06:42:15.888Z,18.3
2018-11-10T06:43:15.916Z,18.3
2018-11-10T06:44:15.871Z,9.5
2018-11-10T06:45:15.950Z,9.5
2018-11-10T06:46:17.276Z,9.5
2018-11-10T06:47:16.018Z,6.6
2018-11-10T06:48:15.889Z,3.9
2018-11-10T06:49:15.961Z,3.9
2018-11-10T06:50:15.831Z,6.6
2018-11-10T06:51:15.945Z,3.9
2018-11-10T06:52:25.817Z,1.8
2018-11-10T06:53:15.858Z,1.8
2018-11-10T06:54:15.973Z,0
2018-11-10T06:55:15.912Z,6.6
2018-11-10T06:56:18.548Z,21.3
2018-11-10T06:57:17.897Z,27.3
2018-11-10T06:58:18.235Z,24.3
2018-11-10T06:59:18.326Z,21.3
2018-11-10T07:00:20.089Z,18.3
2018-11-10T07:01:16.716Z,6.6
2018-11-10T07:02:17.493Z,1.8
2018-11-10T07:03:17.145Z,1.8
2018-11-10T07:04:16.412Z,0
2018-11-10T07:05:18.233Z,0
2018-11-10T07:06:16.855Z,0
2018-11-10T07:07:19.938Z,0
2018-11-10T07:08:18.192Z,0
2018-11-10T07:09:16.346Z,0
2018-11-10T07:10:18.353Z,0
2018-11-10T07:11:16.285Z,1.8
2018-11-10T07:12:18.065Z,0
2018-11-10T07:13:19.725Z,0
2018-11-10T07:14:17.358Z,0
2018-11-10T07:15:16.289Z,0
2018-11-10T07:16:16.469Z,0
2018-11-10T07:17:18.559Z,0
2018-11-10T07:18:18.453Z,0
2018-11-10T07:19:18.307Z,0
2018-11-10T07:20:17.307Z,0
2018-11-10T07:21:18.109Z,0
2018-11-10T07:22:16.933Z,0
2018-11-10T07:23:17.143Z,0
2018-11-10T07:24:17.739Z,0
2018-11-10T07:25:18.602Z,0
2018-11-10T07:26:16.177Z,0
2018-11-10T07:27:16.392Z,1.8
2018-11-10T07:28:19.357Z,1.8
2018-11-10T07:29:18.018Z,0
2018-11-10T07:30:27.086Z,1.8
2018-11-10T07:31:19.878Z,1.8
2018-11-10T07:32:23.458Z,3.9
2018-11-10T07:33:16.918Z,0
2018-11-10T07:34:17.817Z,1.8
2018-11-10T07:35:20.497Z,1.8
2018-11-10T07:36:17.716Z,1.8
2018-11-10T07:37:18.102Z,0
2018-11-10T07:38:17.688Z,0
2018-11-10T07:39:16.247Z,0
2018-11-10T07:40:16.941Z,0
2018-11-10T07:41:17.896Z,0
2018-11-10T07:42:16.967Z,0
2018-11-10T07:43:21.378Z,1.8
2018-11-10T07:44:17.862Z,6.6
2018-11-10T07:45:17.746Z,12.4
2018-11-10T07:46:18.804Z,12.4
2018-11-10T07:47:15.859Z,12.4
2018-11-10T07:48:15.854Z,12.4
2018-11-10T07:49:16.003Z,9.5
2018-11-10T07:50:15.915Z,9.5
2018-11-10T07:51:15.907Z,6.6
2018-11-10T07:52:16.494Z,9.5
2018-11-10T07:53:15.828Z,9.5
2018-11-10T07:54:15.851Z,6.6
2018-11-10T07:55:15.835Z,6.6
2018-11-10T07:56:15.907Z,9.5
2018-11-10T07:57:15.853Z,12.4
2018-11-10T07:58:15.930Z,15.4
2018-11-10T07:59:15.859Z,21.3
2018-11-10T08:00:15.860Z,18.3
2018-11-10T08:01:15.854Z,15.4
2018-11-10T08:02:15.835Z,12.4
2018-11-10T08:03:15.945Z,9.5
2018-11-10T08:04:15.954Z,6.6
2018-11-10T08:05:15.847Z,9.5
2018-11-10T08:06:17.044Z,12.4
2018-11-10T08:07:17.305Z,12.4
2018-11-10T08:08:17.724Z,15.4
2018-11-10T08:09:17.593Z,12.4
2018-11-10T08:10:16.150Z,9.5
2018-11-10T08:11:16.432Z,9.5
2018-11-10T08:12:16.625Z,9.5
2018-11-10T08:13:20.208Z,9.5
2018-11-10T08:14:17.773Z,9.5
2018-11-10T08:15:16.442Z,6.6
2018-11-10T08:16:16.558Z,12.4
2018-11-10T08:17:16.209Z,9.5
2018-11-10T08:18:16.742Z,15.4
2018-11-10T08:19:17.436Z,15.4
2018-11-10T08:20:16.714Z,12.4
2018-11-10T08:21:17.496Z,12.4
2018-11-10T08:22:17.970Z,12.4
2018-11-10T08:23:16.909Z,15.4
2018-11-10T08:24:21.863Z,15.4
2018-11-10T08:25:18.526Z,12.4
2018-11-10T08:26:16.310Z,9.5
2018-11-10T08:27:18.775Z,12.4
2018-11-10T08:28:16.490Z,9.5
2018-11-10T08:29:16.605Z,9.5
2018-11-10T08:30:18.549Z,12.4
2018-11-10T08:31:16.808Z,12.4
2018-11-10T08:32:18.463Z,9.5
2018-11-10T08:33:21.501Z,6.6
2018-11-10T08:34:15.844Z,9.5
2018-11-10T08:35:16.054Z,9.5
2018-11-10T08:36:15.926Z,9.5
2018-11-10T08:37:15.870Z,9.5
2018-11-10T08:38:15.837Z,9.5
2018-11-10T08:39:15.932Z,9.5
2018-11-10T08:40:15.843Z,9.5
2018-11-10T08:41:15.902Z,9.5
2018-11-10T08:42:16.115Z,15.4
2018-11-10T08:43:15.809Z,15.4
2018-11-10T08:44:15.838Z,15.4
2018-11-10T08:45:15.914Z,3.9
2018-11-10T08:46:15.826Z,6.6
2018-11-10T08:47:15.877Z,9.5
2018-11-10T08:48:16.072Z,9.5
2018-11-10T08:49:15.975Z,12.4
2018-11-10T08:50:15.897Z,24.3
2018-11-10T08:51:15.875Z,27.3
2018-11-10T08:52:15.842Z,21.3
2018-11-10T08:53:15.926Z,15.4
2018-11-10T08:54:17.485Z,12.4
2018-11-10T08:55:15.868Z,15.4
2018-11-10T08:56:15.938Z,15.4
2018-11-10T08:57:15.818Z,15.4
2018-11-10T08:58:15.828Z,15.4
2018-11-10T08:59:15.950Z,9.5
2018-11-10T09:00:15.942Z,9.5
2018-11-10T09:01:15.905Z,9.5
2018-11-10T09:02:16.028Z,9.5
2018-11-10T09:03:15.851Z,9.5
2018-11-10T09:04:15.927Z,6.6
2018-11-10T09:05:15.864Z,3.9
2018-11-10T09:06:15.844Z,1.8
2018-11-10T09:07:16.011Z,0
2018-11-10T09:08:15.905Z,1.8
2018-11-10T09:09:15.834Z,1.8
2018-11-10T09:10:15.850Z,3.9
2018-11-10T09:11:15.908Z,3.9
2018-11-10T09:12:15.850Z,6.6
2018-11-10T09:13:17.781Z,12.4
2018-11-10T09:14:15.828Z,12.4
2018-11-10T09:15:15.986Z,15.4
2018-11-10T09:16:15.914Z,12.4
2018-11-10T09:17:15.835Z,9.5
2018-11-10T09:18:15.881Z,6.6
2018-11-10T09:19:15.839Z,6.6
2018-11-10T09:20:15.855Z,6.6
2018-11-10T09:21:15.989Z,6.6
2018-11-10T09:22:15.820Z,6.6
2018-11-10T09:23:15.850Z,6.6
2018-11-10T09:24:17.927Z,6.6
2018-11-10T09:25:15.836Z,9.5
2018-11-10T09:26:15.846Z,3.9
2018-11-10T09:27:15.831Z,1.8
2018-11-10T09:28:15.825Z,1.8
2018-11-10T09:29:15.928Z,1.8
2018-11-10T09:30:16.185Z,0
2018-11-10T09:31:15.801Z,0
2018-11-10T09:32:15.817Z,0
2018-11-10T09:33:15.824Z,1.8
2018-11-10T09:34:15.892Z,3.9
2018-11-10T09:35:15.857Z,6.6
2018-11-10T09:36:15.864Z,9.5
2018-11-10T09:37:15.896Z,12.4
2018-11-10T09:38:15.884Z,9.5
2018-11-10T09:39:15.896Z,6.6
2018-11-10T09:40:15.874Z,3.9
2018-11-10T09:41:15.840Z,0
2018-11-10T09:42:16.018Z,0
2018-11-10T09:43:15.837Z,0
2018-11-10T09:44:15.867Z,0
2018-11-10T09:45:15.891Z,0
2018-11-10T09:46:15.832Z,0
2018-11-10T09:47:15.879Z,0
2018-11-10T09:48:15.850Z,0
2018-11-10T09:49:15.843Z,0
2018-11-10T09:50:15.891Z,0
2018-11-10T09:51:15.821Z,0
2018-11-10T09:52:15.895Z,0
2018-11-10T09:53:15.964Z,0
2018-11-10T09:54:15.942Z,1.8
2018-11-10T09:55:15.819Z,0
2018-11-10T09:56:15.845Z,0
2018-11-10T09:57:15.815Z,1.8
2018-11-10T09:58:15.862Z,0
2018-11-10T09:59:15.821Z,0
2018-11-10T10:00:15.838Z,0
2018-11-10T10:01:16.021Z,0
2018-11-10T10:02:16.235Z,0
2018-11-10T10:03:15.913Z,0
2018-11-10T10:04:15.806Z,0
2018-11-10T10:05:15.791Z,1.8
2018-11-10T10:06:15.882Z,3.9
2018-11-10T10:07:15.903Z,3.9
2018-11-10T10:08:15.794Z,3.9
2018-11-10T10:09:15.818Z,1.8
2018-11-10T10:10:15.821Z,1.8
2018-11-10T10:11:15.903Z,1.8
2018-11-10T10:12:15.837Z,0
2018-11-10T10:13:15.915Z,0
2018-11-10T10:14:15.881Z,0
2018-11-10T10:15:15.803Z,0
2018-11-10T10:16:15.963Z,0
2018-11-10T10:17:15.848Z,0
2018-11-10T10:18:15.835Z,0
2018-11-10T10:19:16.008Z,1.8
2018-11-10T10:20:15.872Z,0
2018-11-10T10:21:15.829Z,3.9
2018-11-10T10:22:15.849Z,3.9
2018-11-10T10:23:15.833Z,3.9
2018-11-10T10:24:15.884Z,3.9
2018-11-10T10:25:15.814Z,0
2018-11-10T10:26:15.850Z,6.6
2018-11-10T10:27:15.836Z,1.8
2018-11-10T10:28:15.903Z,1.8
2018-11-10T10:29:15.879Z,1.8
2018-11-10T10:30:15.828Z,1.8
2018-11-10T10:31:15.826Z,1.8
2018-11-10T10:32:15.886Z,3.9
2018-11-10T10:33:15.861Z,3.9
2018-11-10T10:34:15.894Z,1.8
2018-11-10T10:35:17.701Z,9.5
2018-11-10T10:36:15.902Z,9.5
2018-11-10T10:37:15.826Z,3.9
2018-11-10T10:38:15.790Z,1.8
2018-11-10T10:39:15.830Z,3.9
2018-11-10T10:40:15.896Z,1.8
2018-11-10T10:41:15.844Z,3.9
2018-11-10T10:42:16.220Z,3.9
2018-11-10T10:43:16.289Z,6.6
2018-11-10T10:44:16.107Z,0
2018-11-10T10:45:15.830Z,1.8
2018-11-10T10:46:16.108Z,1.8
2018-11-10T10:47:15.830Z,3.9
2018-11-10T10:48:15.891Z,1.8
2018-11-10T10:49:15.966Z,3.9
2018-11-10T10:50:15.817Z,6.6
2018-11-10T10:51:15.832Z,3.9
2018-11-10T10:52:15.854Z,3.9
2018-11-10T10:53:15.874Z,1.8
2018-11-10T10:54:15.803Z,1.8
2018-11-10T10:55:15.840Z,3.9
2018-11-10T10:56:15.892Z,3.9
2018-11-10T10:57:15.854Z,3.9
2018-11-10T10:58:15.926Z,3.9
2018-11-10T10:59:15.822Z,1.8
2018-11-10T11:00:15.810Z,1.8
2018-11-10T11:01:15.890Z,3.9
2018-11-10T11:02:16.488Z,3.9
2018-11-10T11:03:19.921Z,6.6
2018-11-10T11:04:19.610Z,1.8
2018-11-10T11:05:20.473Z,6.6
2018-11-10T11:06:17.723Z,6.6
2018-11-10T11:07:15.883Z,3.9
2018-11-10T11:08:15.876Z,6.6
2018-11-10T11:09:15.821Z,6.6
2018-11-10T11:10:15.852Z,6.6
2018-11-10T11:11:15.865Z,12.4
2018-11-10T11:12:15.798Z,12.4
2018-11-10T11:13:15.890Z,12.4
2018-11-10T11:14:15.826Z,3.9
2018-11-10T11:15:15.925Z,9.5
2018-11-10T11:16:15.874Z,3.9
2018-11-10T11:17:15.814Z,9.5
2018-11-10T11:18:15.803Z,6.6
2018-11-10T11:19:15.840Z,0
2018-11-10T11:20:15.846Z,6.6
2018-11-10T11:21:15.859Z,3.9
2018-11-10T11:22:15.864Z,0
2018-11-10T11:23:15.820Z,9.5
2018-11-10T11:24:15.894Z,6.6
2018-11-10T11:25:15.825Z,3.9
2018-11-10T11:26:15.856Z,6.6
2018-11-10T11:27:15.796Z,6.6
2018-11-10T11:28:15.854Z,3.9
2018-11-10T11:29:15.966Z,1.8
2018-11-10T11:30:15.815Z,3.9
2018-11-10T11:31:15.942Z,3.9
2018-11-10T11:32:15.998Z,3.9
2018-11-10T11:33:15.821Z,6.6
2018-11-10T11:34:15.830Z,3.9
2018-11-10T11:35:15.931Z,0
2018-11-10T11:36:15.824Z,0
2018-11-10T11:37:15.827Z,1.8
2018-11-10T11:38:15.813Z,1.8
2018-11-10T11:39:15.844Z,0
2018-11-10T11:40:15.808Z,0
2018-11-10T11:41:15.880Z,0
2018-11-10T11:42:15.843Z,1.8
2018-11-10T11:43:15.838Z,1.8
2018-11-10T11:44:15.907Z,0
2018-11-10T11:45:15.872Z,0
2018-11-10T11:46:15.945Z,0
2018-11-10T11:47:15.836Z,0
2018-11-10T11:48:15.845Z,0
2018-11-10T11:49:15.822Z,0
2018-11-10T11:50:15.866Z,1.8
2018-11-10T11:51:18.788Z,0
2018-11-10T11:52:15.810Z,1.8
2018-11-10T11:53:15.837Z,1.8
2018-11-10T11:54:15.798Z,0
2018-11-10T11:55:15.847Z,0
2018-11-10T11:56:15.815Z,0
2018-11-10T11:57:15.822Z,0
2018-11-10T11:58:15.960Z,0
2018-11-10T11:59:15.838Z,0
2018-11-10T12:00:15.808Z,1.8
2018-11-10T12:01:15.810Z,3.9
2018-11-10T12:02:23.692Z,1.8
2018-11-10T12:03:15.830Z,1.8
2018-11-10T12:04:15.854Z,1.8
2018-11-10T12:05:15.828Z,0
2018-11-10T12:06:15.839Z,0
2018-11-10T12:07:15.869Z,0
2018-11-10T12:08:17.474Z,0
2018-11-10T12:09:15.808Z,1.8
2018-11-10T12:10:15.801Z,3.9
2018-11-10T12:11:15.831Z,0
2018-11-10T12:12:15.855Z,1.8
2018-11-10T12:13:21.456Z,3.9
2018-11-10T12:14:15.836Z,6.6
2018-11-10T12:15:15.912Z,0
2018-11-10T12:16:27.198Z,0
2018-11-10T12:17:15.830Z,1.8
2018-11-10T12:18:15.871Z,0
2018-11-10T12:19:15.799Z,0
2018-11-10T12:20:15.806Z,0
2018-11-10T12:21:15.794Z,0
2018-11-10T12:22:17.444Z,0
2018-11-10T12:23:15.872Z,1.8
2018-11-10T12:24:19.726Z,0
2018-11-10T12:25:15.826Z,0
2018-11-10T12:26:15.829Z,0
2018-11-10T12:27:15.814Z,0
2018-11-10T12:28:15.827Z,0
2018-11-10T12:29:15.868Z,0
2018-11-10T12:30:15.833Z,0
2018-11-10T12:31:15.822Z,0
2018-11-10T12:32:19.497Z,0
2018-11-10T12:33:18.204Z,1.8
2018-11-10T12:34:15.884Z,3.9
2018-11-10T12:35:15.868Z,0
2018-11-10T12:36:15.813Z,0
2018-11-10T12:37:15.828Z,0
2018-11-10T12:38:15.902Z,0
2018-11-10T12:39:15.826Z,0
2018-11-10T12:40:17.856Z,0
2018-11-10T12:41:17.560Z,0
2018-11-10T12:42:15.792Z,0
2018-11-10T12:43:17.031Z,1.8
2018-11-10T12:44:17.493Z,3.9
2018-11-10T12:45:15.868Z,1.8
2018-11-10T12:46:15.889Z,3.9
2018-11-10T12:47:15.811Z,1.8
2018-11-10T12:48:15.904Z,0
2018-11-10T12:49:16.012Z,1.8
2018-11-10T12:50:16.529Z,0
2018-11-10T12:51:17.439Z,0
2018-11-10T12:52:15.863Z,0
2018-11-10T12:53:15.805Z,0
2018-11-10T12:54:15.817Z,0
2018-11-10T12:55:15.953Z,0
2018-11-10T12:56:15.838Z,1.8
2018-11-10T12:57:15.823Z,1.8
2018-11-10T12:58:15.828Z,1.8
2018-11-10T12:59:15.916Z,1.8
2018-11-10T13:00:15.897Z,0
2018-11-10T13:01:15.829Z,0
2018-11-10T13:02:17.664Z,3.9
2018-11-10T13:03:17.489Z,6.6
2018-11-10T13:04:15.873Z,6.6
2018-11-10T13:05:15.785Z,6.6
2018-11-10T13:06:15.839Z,12.4
2018-11-10T13:07:19.327Z,12.4
2018-11-10T13:08:15.907Z,9.5
2018-11-10T13:09:15.814Z,6.6
2018-11-10T13:10:15.794Z,9.5
2018-11-10T13:11:15.859Z,9.5
2018-11-10T13:12:15.901Z,9.5
2018-11-10T13:13:15.803Z,9.5
2018-11-10T13:14:15.861Z,6.6
2018-11-10T13:15:15.797Z,9.5
2018-11-10T13:16:15.930Z,6.6
2018-11-10T13:17:15.922Z,3.9
2018-11-10T13:18:15.809Z,3.9
2018-11-10T13:19:15.787Z,6.6
2018-11-10T13:20:15.809Z,6.6
2018-11-10T13:21:15.850Z,3.9
2018-11-10T13:22:15.802Z,1.8
2018-11-10T13:23:15.817Z,3.9
2018-11-10T13:24:15.885Z,3.9
2018-11-10T13:25:15.816Z,6.6
2018-11-10T13:26:15.840Z,3.9
2018-11-10T13:27:15.817Z,3.9
2018-11-10T13:28:15.909Z,3.9
2018-11-10T13:29:15.804Z,3.9
2018-11-10T13:30:15.798Z,6.6
2018-11-10T13:31:15.940Z,3.9
2018-11-10T13:32:15.827Z,3.9
2018-11-10T13:33:15.846Z,3.9
2018-11-10T13:34:15.809Z,6.6
2018-11-10T13:35:15.760Z,12.4
2018-11-10T13:36:15.847Z,12.4
2018-11-10T13:37:15.802Z,3.9
2018-11-10T13:38:15.841Z,6.6
2018-11-10T13:39:15.868Z,6.6
2018-11-10T13:40:19.106Z,12.4
2018-11-10T13:41:15.876Z,12.4
2018-11-10T13:42:15.810Z,9.5
2018-11-10T13:43:15.900Z,9.5
2018-11-10T13:44:15.912Z,9.5
2018-11-10T13:45:15.812Z,9.5
2018-11-10T13:46:15.848Z,12.4
2018-11-10T13:47:15.796Z,6.6
2018-11-10T13:48:15.803Z,12.4
2018-11-10T13:49:15.876Z,12.4
2018-11-10T13:50:15.832Z,9.5
2018-11-10T13:51:18.457Z,9.5
2018-11-10T13:52:16.205Z,9.5
2018-11-10T13:53:15.812Z,1.8
2018-11-10T13:54:15.858Z,1.8
2018-11-10T13:55:15.797Z,9.5
2018-11-10T13:56:15.872Z,9.5
2018-11-10T13:57:15.788Z,3.9
2018-11-10T13:58:15.827Z,3.9
2018-11-10T13:59:15.915Z,12.4
2018-11-10T14:00:15.862Z,9.5
2018-11-10T14:01:15.769Z,12.4
2018-11-10T14:02:15.806Z,9.5
2018-11-10T14:03:15.843Z,15.4
2018-11-10T14:04:15.812Z,12.4
2018-11-10T14:05:15.841Z,9.5
2018-11-10T14:06:15.795Z,12.4
2018-11-10T14:07:15.755Z,18.3
2018-11-10T14:08:15.804Z,15.4